Time;durP1;ratioP1;P1;durP2;ratioP2;P2;SDS_P1;SDS_P2;PMS_P1;PMS_P2;Temp;Humidity;BMP_temperature;BMP_pressure;BME280_temperature;BME280_humidity;BME280_pressure;Samples;Min_cycle;Max_cycle;Signal;HPM_P1;HPM_P2
2023/01/09 00:00:44;;;;;;;0.50;0.30;;;10.20;99.90;;;;;;5135805;27;20478;-60
2023/01/09 00:03:12;;;;;;;0.63;0.27;;;10.10;99.90;;;;;;5135972;27;20513;-60
2023/01/09 00:05:38;;;;;;;0.33;0.33;;;10.10;99.90;;;;;;5136000;27;20450;-60
2023/01/09 00:08:05;;;;;;;0.40;0.40;;;10.10;99.90;;;;;;5135909;27;20453;-61
2023/01/09 00:10:32;;;;;;;0.50;0.30;;;10.00;99.90;;;;;;5136508;27;20454;-60
2023/01/09 00:12:59;;;;;;;1.27;0.30;;;10.00;99.90;;;;;;5136301;27;20476;-60
2023/01/09 00:15:26;;;;;;;0.67;0.40;;;10.00;99.90;;;;;;5136535;27;20448;-61
2023/01/09 00:17:54;;;;;;;1.03;0.40;;;10.00;99.90;;;;;;5137157;27;20446;-61
2023/01/09 00:20:20;;;;;;;1.40;0.40;;;9.90;99.90;;;;;;5137703;27;20430;-61
2023/01/09 00:22:47;;;;;;;2.10;0.40;;;9.90;99.90;;;;;;5135120;27;20494;-60
2023/01/09 00:25:14;;;;;;;1.07;0.30;;;9.90;99.90;;;;;;5135337;27;20463;-60
2023/01/09 00:27:41;;;;;;;0.30;0.20;;;9.90;99.90;;;;;;5135576;27;20775;-60
2023/01/09 00:30:09;;;;;;;0.37;0.30;;;9.80;99.90;;;;;;5135228;27;20448;-60
2023/01/09 00:32:36;;;;;;;0.60;0.50;;;9.70;99.90;;;;;;5135656;27;20485;-61
2023/01/09 00:35:04;;;;;;;0.50;0.40;;;9.70;99.90;;;;;;5135702;27;20448;-61
2023/01/09 00:37:31;;;;;;;0.40;0.20;;;9.70;99.90;;;;;;5135429;27;20431;-60
2023/01/09 00:39:58;;;;;;;0.60;0.37;;;9.70;99.90;;;;;;5134698;27;20836;-60
2023/01/09 00:42:30;;;;;;;0.60;0.40;;;9.70;99.90;;;;;;5134707;27;20493;-61
2023/01/09 00:45:00;;;;;;;1.80;0.40;;;9.70;99.90;;;;;;5134959;27;20429;-61
2023/01/09 00:47:31;;;;;;;0.63;0.33;;;9.60;99.90;;;;;;5134858;27;20457;-61
2023/01/09 00:50:00;;;;;;;0.67;0.33;;;9.60;99.90;;;;;;5134775;27;20441;-60
2023/01/09 00:52:30;;;;;;;0.40;0.33;;;9.60;99.90;;;;;;5134690;27;20463;-60
2023/01/09 00:54:58;;;;;;;1.17;0.30;;;9.50;99.90;;;;;;5134829;27;20430;-61
2023/01/09 00:57:25;;;;;;;0.70;0.30;;;9.50;99.90;;;;;;5134713;27;20446;-61
2023/01/09 00:59:52;;;;;;;0.40;0.30;;;9.50;99.90;;;;;;5135327;27;20453;-60
2023/01/09 01:02:19;;;;;;;0.50;0.30;;;9.50;99.90;;;;;;5134822;27;20488;-60
2023/01/09 01:07:41;;;;;;;0.97;0.20;;;9.50;99.90;;;;;;5134792;27;20765;-60
2023/01/09 01:10:11;;;;;;;3.37;0.40;;;9.50;99.90;;;;;;5134533;27;20440;-60
2023/01/09 01:12:39;;;;;;;1.47;0.43;;;9.40;99.90;;;;;;5134450;27;20473;-60
2023/01/09 01:15:07;;;;;;;0.50;0.30;;;9.30;99.90;;;;;;5134517;28;20448;-60
2023/01/09 01:17:35;;;;;;;1.00;0.37;;;9.30;99.90;;;;;;5134314;28;20965;-60
2023/01/09 01:20:02;;;;;;;0.40;0.40;;;9.30;99.90;;;;;;5134577;28;20453;-61
2023/01/09 01:22:30;;;;;;;2.20;0.40;;;9.30;99.90;;;;;;5134085;28;21010;-60
2023/01/09 01:24:57;;;;;;;0.60;0.60;;;9.30;99.90;;;;;;5134598;28;20449;-61
2023/01/09 01:27:24;;;;;;;0.60;0.30;;;9.30;99.90;;;;;;5134467;28;20456;-60
2023/01/09 01:29:51;;;;;;;0.80;0.60;;;9.30;99.90;;;;;;5134552;28;20449;-61
2023/01/09 01:32:17;;;;;;;2.10;0.50;;;9.30;99.90;;;;;;5134410;28;20471;-60
2023/01/09 01:34:44;;;;;;;0.40;0.30;;;9.20;99.90;;;;;;5135807;27;20449;-60
2023/01/09 01:37:11;;;;;;;0.50;0.40;;;9.20;99.90;;;;;;5138609;27;20856;-60
2023/01/09 01:39:39;;;;;;;0.50;0.47;;;9.10;99.90;;;;;;5138350;27;20466;-60
2023/01/09 01:42:06;;;;;;;2.40;0.70;;;9.10;99.90;;;;;;5138433;27;20488;-60
2023/01/09 01:44:57;;;;;;;1.93;0.50;;;9.10;99.90;;;;;;5138505;27;20449;-60
2023/01/09 01:47:28;;;;;;;0.60;0.50;;;9.00;99.90;;;;;;5138442;27;20521;-60
2023/01/09 01:49:56;;;;;;;0.77;0.60;;;8.90;99.90;;;;;;5138354;27;20436;-60
2023/01/09 01:52:24;;;;;;;1.27;0.50;;;9.00;99.90;;;;;;5138124;27;20471;-60
2023/01/09 01:54:53;;;;;;;2.60;0.50;;;9.00;99.90;;;;;;5138673;27;20456;-61
2023/01/09 01:57:20;;;;;;;0.93;0.50;;;9.00;99.90;;;;;;5137884;27;21046;-60
2023/01/09 01:59:50;;;;;;;1.00;0.73;;;9.00;99.90;;;;;;5138315;27;20456;-61
2023/01/09 02:02:20;;;;;;;1.27;0.60;;;8.80;99.90;;;;;;5137839;27;20485;-61
2023/01/09 02:04:48;;;;;;;2.30;0.70;;;8.80;99.90;;;;;;5137593;27;20439;-60
2023/01/09 02:07:15;;;;;;;1.43;1.00;;;8.80;99.90;;;;;;5138091;27;20450;-61
2023/01/09 02:09:44;;;;;;;1.20;0.60;;;8.70;99.90;;;;;;5137466;27;20451;-60
2023/01/09 02:12:18;;;;;;;1.10;0.50;;;8.70;99.90;;;;;;5137720;27;20517;-60
2023/01/09 02:14:46;;;;;;;3.07;0.87;;;8.80;99.90;;;;;;5137763;27;20432;-60
2023/01/09 02:17:22;;;;;;;1.70;1.13;;;8.70;99.90;;;;;;5137675;27;20452;-60
2023/01/09 02:20:21;;;;;;;1.73;1.00;;;8.60;99.90;;;;;;5137832;27;20465;-60
2023/01/09 02:23:06;;;;;;;2.20;0.80;;;8.60;99.90;;;;;;5128272;27;20483;-60
2023/01/09 02:26:05;;;;;;;1.37;1.00;;;8.60;99.90;;;;;;5137653;27;20428;-60
2023/01/09 02:28:52;;;;;;;3.03;0.90;;;8.60;99.90;;;;;;5137463;27;20448;-60
2023/01/09 02:31:24;;;;;;;2.73;1.00;;;8.60;99.90;;;;;;5137318;27;20475;-60
2023/01/09 02:33:59;;;;;;;1.57;1.20;;;8.60;99.90;;;;;;5137087;27;20790;-60
2023/01/09 02:36:31;;;;;;;1.40;1.03;;;8.60;99.90;;;;;;5137316;27;20427;-60
2023/01/09 02:39:15;;;;;;;3.80;0.80;;;8.50;99.90;;;;;;5137291;27;20440;-60
2023/01/09 02:41:48;;;;;;;1.40;0.90;;;8.50;99.90;;;;;;5136877;27;20467;-60
2023/01/09 02:44:21;;;;;;;1.77;0.90;;;8.50;99.90;;;;;;5137172;27;20464;-60
2023/01/09 02:46:59;;;;;;;3.50;1.10;;;8.50;99.90;;;;;;5137437;27;20436;-60
2023/01/09 02:49:27;;;;;;;2.40;0.83;;;8.40;99.90;;;;;;5137158;27;20438;-60
2023/01/09 02:52:01;;;;;;;1.20;1.10;;;8.40;99.90;;;;;;5136936;27;20466;-60
2023/01/09 02:54:42;;;;;;;2.70;1.40;;;8.50;99.90;;;;;;5137044;27;20423;-60
2023/01/09 02:57:20;;;;;;;3.30;1.27;;;8.50;99.90;;;;;;5136910;27;20438;-60
2023/01/09 03:00:02;;;;;;;3.40;1.50;;;8.50;99.90;;;;;;5136898;27;20431;-60
2023/01/09 03:02:47;;;;;;;3.50;1.30;;;8.50;99.90;;;;;;5136507;27;20517;-60
2023/01/09 03:05:21;;;;;;;9.10;1.57;;;8.50;99.90;;;;;;5134558;27;20442;-60
2023/01/09 03:07:56;;;;;;;4.17;1.40;;;8.50;99.90;;;;;;5135934;27;20952;-60
2023/01/09 03:10:35;;;;;;;3.30;1.27;;;8.40;99.90;;;;;;5136525;27;20431;-60
2023/01/09 03:13:03;;;;;;;4.30;1.17;;;8.50;99.90;;;;;;5136477;27;20827;-60
2023/01/09 03:15:34;;;;;;;2.03;1.27;;;8.50;99.90;;;;;;5136498;27;20933;-60
2023/01/09 03:18:05;;;;;;;4.13;1.23;;;8.50;99.90;;;;;;5136190;27;20440;-60
2023/01/09 03:20:32;;;;;;;4.10;1.30;;;8.50;99.90;;;;;;5136123;27;20919;-60
2023/01/09 03:23:01;;;;;;;5.60;1.50;;;8.40;99.90;;;;;;5135932;27;21026;-60
2023/01/09 03:25:29;;;;;;;2.33;1.40;;;8.40;99.90;;;;;;5136177;27;20451;-60
2023/01/09 03:27:57;;;;;;;5.87;1.40;;;8.40;99.90;;;;;;5136160;27;20447;-60
2023/01/09 03:30:25;;;;;;;4.33;1.43;;;8.50;99.90;;;;;;5136257;27;20457;-60
2023/01/09 03:32:52;;;;;;;3.37;1.43;;;8.50;99.90;;;;;;5136139;27;20467;-60
2023/01/09 03:35:20;;;;;;;4.20;1.20;;;8.50;99.90;;;;;;5135724;27;20528;-60
2023/01/09 03:37:46;;;;;;;4.43;1.23;;;8.60;99.90;;;;;;5136229;27;20444;-60
2023/01/09 03:40:13;;;;;;;2.20;1.20;;;8.60;99.90;;;;;;5135777;27;20457;-60
2023/01/09 03:42:40;;;;;;;1.47;0.87;;;8.60;99.90;;;;;;5135872;27;20491;-60
2023/01/09 03:45:07;;;;;;;2.00;0.90;;;8.60;99.90;;;;;;5135614;27;20944;-60
2023/01/09 03:47:34;;;;;;;3.07;1.50;;;8.60;99.90;;;;;;5135923;27;20456;-60
2023/01/09 03:50:00;;;;;;;3.90;1.33;;;8.70;99.90;;;;;;5135935;27;20449;-60
2023/01/09 03:52:28;;;;;;;2.27;1.43;;;8.70;99.90;;;;;;5135706;27;20484;-60
2023/01/09 03:54:55;;;;;;;5.67;1.53;;;8.80;99.90;;;;;;5135804;27;20449;-60
2023/01/09 03:57:22;;;;;;;3.70;1.10;;;8.70;99.90;;;;;;5134935;27;20796;-60
2023/01/09 03:59:49;;;;;;;5.83;1.13;;;8.80;99.90;;;;;;5135833;27;20451;-60
2023/01/09 04:02:16;;;;;;;6.07;1.17;;;8.70;99.90;;;;;;5135403;27;20482;-60
2023/01/09 04:04:43;;;;;;;5.27;0.80;;;8.70;99.90;;;;;;5135444;27;20488;-60
2023/01/09 04:07:10;;;;;;;5.10;1.10;;;8.70;99.90;;;;;;5135653;27;20854;-60
2023/01/09 04:09:38;;;;;;;2.70;1.20;;;8.70;99.80;;;;;;5136323;27;20448;-60
2023/01/09 04:12:05;;;;;;;2.23;1.30;;;8.70;99.60;;;;;;5135683;27;20465;-60
2023/01/09 04:14:32;;;;;;;3.63;1.20;;;8.70;99.60;;;;;;5135607;27;20452;-60
2023/01/09 04:16:58;;;;;;;5.10;1.20;;;8.70;99.20;;;;;;5135527;27;20444;-60
2023/01/09 04:19:25;;;;;;;6.23;1.30;;;8.60;99.30;;;;;;5135264;27;20453;-60
2023/01/09 04:21:52;;;;;;;7.60;1.40;;;8.60;99.30;;;;;;5134862;27;20873;-60
2023/01/09 04:24:18;;;;;;;3.27;1.30;;;8.60;99.30;;;;;;5135150;27;20510;-60
2023/01/09 04:26:47;;;;;;;7.43;1.43;;;8.60;99.40;;;;;;5135167;27;20831;-60
2023/01/09 04:29:13;;;;;;;1.87;1.50;;;8.60;99.10;;;;;;5135101;27;20531;-60
2023/01/09 04:31:40;;;;;;;1.80;0.80;;;8.50;99.10;;;;;;5135056;27;20468;-60
2023/01/09 04:34:07;;;;;;;5.23;1.37;;;8.50;99.10;;;;;;5134873;27;20472;-60
2023/01/09 04:36:34;;;;;;;2.87;1.07;;;8.50;99.20;;;;;;5135012;27;20436;-60
2023/01/09 04:39:01;;;;;;;7.90;1.27;;;8.40;99.20;;;;;;5134770;27;20449;-60
2023/01/09 04:44:14;;;;;;;4.47;1.10;;;8.40;98.90;;;;;;5134503;27;20465;-60
2023/01/09 04:46:40;;;;;;;9.07;1.27;;;8.40;98.90;;;;;;5134845;27;20433;-60
2023/01/09 04:49:07;;;;;;;3.33;1.17;;;8.40;99.00;;;;;;5135048;27;20458;-60
2023/01/09 04:51:34;;;;;;;4.97;1.30;;;8.40;99.20;;;;;;5134667;27;20475;-60
2023/01/09 04:54:01;;;;;;;2.67;1.00;;;8.40;99.10;;;;;;5134736;27;20441;-60
2023/01/09 04:56:27;;;;;;;4.70;1.20;;;8.40;99.30;;;;;;5134693;27;20455;-60
2023/01/09 04:58:54;;;;;;;5.10;0.97;;;8.50;99.20;;;;;;5134456;27;20505;-60
2023/01/09 05:01:23;;;;;;;2.77;0.77;;;8.50;99.20;;;;;;5134389;27;20468;-60
2023/01/09 05:03:49;;;;;;;3.53;1.17;;;8.50;99.10;;;;;;5134233;27;20483;-60
2023/01/09 05:06:16;;;;;;;6.80;1.10;;;8.50;99.10;;;;;;5135040;27;20453;-60
2023/01/09 05:08:43;;;;;;;5.77;1.20;;;8.50;99.10;;;;;;5133990;27;20433;-60
2023/01/09 05:11:10;;;;;;;4.10;0.90;;;8.60;99.20;;;;;;5134357;27;20447;-60
2023/01/09 05:13:36;;;;;;;3.93;1.10;;;8.60;99.30;;;;;;5134417;27;20469;-60
2023/01/09 05:16:03;;;;;;;2.30;1.10;;;8.60;99.10;;;;;;5134484;27;20455;-60
2023/01/09 05:18:31;;;;;;;3.03;1.10;;;8.60;99.20;;;;;;5134445;28;20450;-60
2023/01/09 05:20:58;;;;;;;7.93;0.90;;;8.60;99.10;;;;;;5134291;28;20433;-60
2023/01/09 05:23:25;;;;;;;5.13;1.10;;;8.60;98.70;;;;;;5134291;28;20477;-60
2023/01/09 05:25:51;;;;;;;2.43;1.13;;;8.70;98.70;;;;;;5134419;28;20455;-60
2023/01/09 05:28:18;;;;;;;2.90;1.20;;;8.60;98.70;;;;;;5134512;28;20439;-60
2023/01/09 05:30:45;;;;;;;8.37;1.03;;;8.60;98.80;;;;;;5134380;28;20455;-60
2023/01/09 05:33:11;;;;;;;5.43;1.00;;;8.70;99.00;;;;;;5134104;28;20469;-60
2023/01/09 05:35:39;;;;;;;2.50;1.40;;;8.70;98.90;;;;;;5134511;28;20437;-60
2023/01/09 05:38:06;;;;;;;5.67;1.17;;;8.80;98.80;;;;;;5134153;28;20967;-60
2023/01/09 05:40:33;;;;;;;3.90;0.80;;;8.70;98.50;;;;;;5134162;28;20464;-60
2023/01/09 05:42:59;;;;;;;3.13;0.83;;;8.80;98.50;;;;;;5134173;28;20470;-60
2023/01/09 05:45:26;;;;;;;4.60;1.43;;;8.80;98.50;;;;;;5133970;28;20963;-60
2023/01/09 05:47:53;;;;;;;2.63;0.70;;;8.80;98.60;;;;;;5134332;28;20455;-60
2023/01/09 05:50:20;;;;;;;1.50;0.80;;;8.80;98.50;;;;;;5134084;28;20441;-60
2023/01/09 05:52:48;;;;;;;4.00;0.80;;;8.90;98.60;;;;;;5133986;28;20976;-60
2023/01/09 05:55:15;;;;;;;5.10;1.17;;;8.90;98.50;;;;;;5134299;28;20945;-60
2023/01/09 05:57:41;;;;;;;2.97;0.83;;;8.80;98.40;;;;;;5134183;28;20454;-60
2023/01/09 06:00:09;;;;;;;4.27;1.00;;;8.90;98.60;;;;;;5134054;28;20453;-60
2023/01/09 06:02:36;;;;;;;5.63;1.03;;;8.90;98.50;;;;;;5133918;28;20499;-60
2023/01/09 06:05:03;;;;;;;2.40;1.27;;;8.90;98.50;;;;;;5134023;28;20480;-60
2023/01/09 06:07:30;;;;;;;4.20;1.30;;;8.90;98.60;;;;;;5134068;28;20449;-60
2023/01/09 06:09:58;;;;;;;6.37;1.80;;;8.90;98.60;;;;;;5133941;28;20441;-60
2023/01/09 06:12:24;;;;;;;7.50;1.97;;;8.90;98.60;;;;;;5133948;28;20470;-60
2023/01/09 06:14:51;;;;;;;4.73;1.10;;;8.90;98.70;;;;;;5134009;28;20454;-60
2023/01/09 06:17:18;;;;;;;5.17;1.27;;;9.00;98.70;;;;;;5133951;28;20555;-60
2023/01/09 06:19:45;;;;;;;6.87;1.00;;;8.90;98.60;;;;;;5133926;27;20517;-60
2023/01/09 06:22:11;;;;;;;5.47;1.40;;;8.90;98.90;;;;;;5136980;27;20835;-60
2023/01/09 06:24:38;;;;;;;5.67;1.10;;;9.00;98.70;;;;;;5137575;27;20484;-60
2023/01/09 06:27:06;;;;;;;5.43;1.70;;;9.00;98.70;;;;;;5137600;27;20442;-60
2023/01/09 06:29:33;;;;;;;4.83;1.80;;;9.00;98.70;;;;;;5137892;27;20514;-60
2023/01/09 06:31:59;;;;;;;4.93;2.20;;;9.00;98.70;;;;;;5137509;27;20465;-60
2023/01/09 06:34:26;;;;;;;8.90;2.00;;;9.00;98.60;;;;;;5137243;27;20438;-60
2023/01/09 06:36:53;;;;;;;2.40;1.00;;;9.10;98.80;;;;;;5137363;27;20456;-60
2023/01/09 06:39:20;;;;;;;8.77;1.30;;;9.00;98.60;;;;;;5137160;27;20448;-60
2023/01/09 06:41:46;;;;;;;4.00;2.00;;;9.10;99.10;;;;;;5137345;27;20465;-60
2023/01/09 06:44:15;;;;;;;4.20;1.20;;;9.10;98.50;;;;;;5137261;27;20477;-60
2023/01/09 06:46:41;;;;;;;2.17;0.90;;;9.00;98.30;;;;;;5138066;27;20791;-60
2023/01/09 06:49:09;;;;;;;3.47;1.13;;;9.10;98.50;;;;;;5137232;27;20433;-60
2023/01/09 06:51:36;;;;;;;2.47;1.30;;;9.10;98.40;;;;;;5137108;27;20480;-60
2023/01/09 06:54:03;;;;;;;5.63;1.30;;;9.10;98.30;;;;;;5137140;27;21084;-60
2023/01/09 06:56:29;;;;;;;2.70;1.00;;;9.20;98.40;;;;;;5137470;27;20449;-60
2023/01/09 06:58:56;;;;;;;6.90;1.90;;;9.20;98.30;;;;;;5137483;27;20457;-59
2023/01/09 07:01:24;;;;;;;5.13;1.83;;;9.20;98.10;;;;;;5137722;27;20468;-60
2023/01/09 07:03:51;;;;;;;3.90;1.20;;;9.20;97.90;;;;;;5137418;27;20481;-60
2023/01/09 07:06:18;;;;;;;2.57;0.90;;;9.20;98.30;;;;;;5138726;27;20438;-60
2023/01/09 07:08:45;;;;;;;5.93;1.80;;;9.20;97.80;;;;;;5138572;27;20448;-60
2023/01/09 07:11:12;;;;;;;5.83;1.30;;;9.20;97.80;;;;;;5137561;27;20460;-60
2023/01/09 07:13:39;;;;;;;8.40;2.00;;;9.30;97.70;;;;;;5137018;27;20468;-60
2023/01/09 07:16:06;;;;;;;4.87;1.40;;;9.20;97.60;;;;;;5137078;27;20463;-60
2023/01/09 07:18:35;;;;;;;3.53;1.33;;;9.20;97.70;;;;;;5136909;27;20439;-60
2023/01/09 07:21:02;;;;;;;5.77;1.23;;;9.10;97.50;;;;;;5136888;27;20522;-61
2023/01/09 07:23:29;;;;;;;4.00;1.33;;;9.10;97.90;;;;;;5136680;27;20436;-60
2023/01/09 07:25:57;;;;;;;3.10;1.00;;;9.20;98.00;;;;;;5136652;27;20441;-60
2023/01/09 07:28:23;;;;;;;5.00;1.30;;;9.20;97.80;;;;;;5136482;27;20433;-60
2023/01/09 07:30:50;;;;;;;6.20;1.40;;;9.20;97.80;;;;;;5136286;27;20445;-60
2023/01/09 07:33:17;;;;;;;8.20;1.40;;;9.20;97.70;;;;;;5134957;27;20979;-60
2023/01/09 07:35:45;;;;;;;11.30;1.40;;;9.20;97.70;;;;;;5136196;27;20440;-60
2023/01/09 07:38:12;;;;;;;7.50;1.63;;;9.20;97.60;;;;;;5137282;27;20448;-60
2023/01/09 07:40:39;;;;;;;3.70;1.50;;;9.20;97.60;;;;;;5135563;27;20471;-60
2023/01/09 07:43:05;;;;;;;6.17;1.40;;;9.20;97.50;;;;;;5136063;27;20472;-60
2023/01/09 07:45:32;;;;;;;4.93;1.03;;;9.20;97.50;;;;;;5135689;27;20487;-60
2023/01/09 07:47:59;;;;;;;4.70;1.30;;;9.30;97.60;;;;;;5135617;27;20953;-60
2023/01/09 07:50:25;;;;;;;5.30;1.40;;;9.30;97.30;;;;;;5135817;27;20449;-60
2023/01/09 07:52:53;;;;;;;6.47;1.60;;;9.30;97.30;;;;;;5135850;27;20813;-60
2023/01/09 07:55:21;;;;;;;5.77;1.87;;;9.30;97.30;;;;;;5136065;27;20442;-60
2023/01/09 07:57:49;;;;;;;3.17;1.13;;;9.30;97.00;;;;;;5135778;27;20440;-60
2023/01/09 08:00:17;;;;;;;3.40;1.07;;;9.30;97.00;;;;;;5135715;27;20446;-60
2023/01/09 08:02:46;;;;;;;4.20;1.60;;;9.30;97.10;;;;;;5135624;27;20496;-60
2023/01/09 08:05:14;;;;;;;10.07;1.90;;;9.30;96.90;;;;;;5135885;27;20473;-60
2023/01/09 08:07:41;;;;;;;4.10;1.10;;;9.30;96.90;;;;;;5135545;27;20483;-60
2023/01/09 08:10:11;;;;;;;6.13;1.30;;;9.40;97.10;;;;;;5135489;27;20438;-59
2023/01/09 08:12:38;;;;;;;5.47;1.10;;;9.40;97.00;;;;;;5135357;27;20467;-60
2023/01/09 08:15:05;;;;;;;4.20;1.47;;;9.50;96.80;;;;;;5135428;27;20449;-60
2023/01/09 08:17:32;;;;;;;5.50;1.57;;;9.50;96.60;;;;;;5135358;27;20439;-60
2023/01/09 08:19:59;;;;;;;7.40;1.73;;;9.50;96.60;;;;;;5134960;27;20460;-60
2023/01/09 08:22:25;;;;;;;8.90;1.30;;;9.50;96.60;;;;;;5134964;27;20988;-60
2023/01/09 08:24:52;;;;;;;6.73;1.57;;;9.60;96.60;;;;;;5135161;27;20495;-60
2023/01/09 08:27:20;;;;;;;3.00;1.80;;;9.60;96.60;;;;;;5135159;27;20434;-60
2023/01/09 08:29:47;;;;;;;7.70;1.50;;;9.60;96.40;;;;;;5135150;27;20455;-60
2023/01/09 08:32:13;;;;;;;6.23;1.90;;;9.60;96.30;;;;;;5135019;27;20496;-60
2023/01/09 08:34:40;;;;;;;5.07;1.17;;;9.70;96.40;;;;;;5135638;27;20768;-60
2023/01/09 08:37:07;;;;;;;10.53;1.20;;;9.70;96.20;;;;;;5134994;27;20456;-60
2023/01/09 08:39:34;;;;;;;2.90;1.47;;;9.70;96.20;;;;;;5134749;27;20456;-60
2023/01/09 08:47:32;;;;;;;7.73;1.50;;;9.70;96.40;;;;;;5134986;27;20541;-60
2023/01/09 08:49:59;;;;;;;5.67;1.13;;;9.70;96.30;;;;;;5135641;27;20518;-60
2023/01/09 08:52:29;;;;;;;7.23;3.20;;;9.70;96.40;;;;;;5134756;27;20473;-60
2023/01/09 08:54:56;;;;;;;8.13;1.17;;;9.80;96.30;;;;;;5135002;27;20514;-60
2023/01/09 08:57:23;;;;;;;4.07;1.13;;;9.80;96.50;;;;;;5134780;27;20441;-60
2023/01/09 08:59:51;;;;;;;6.57;1.53;;;9.80;96.30;;;;;;5134706;27;20882;-60
2023/01/09 09:02:17;;;;;;;4.40;1.57;;;9.80;96.20;;;;;;5134534;27;20474;-60
2023/01/09 09:04:45;;;;;;;2.90;0.90;;;9.80;96.60;;;;;;5134437;27;20554;-60
2023/01/09 09:07:11;;;;;;;4.73;1.17;;;9.80;96.40;;;;;;5134492;27;20449;-60
2023/01/09 09:09:38;;;;;;;3.20;0.90;;;9.70;96.30;;;;;;5134399;27;20813;-60
2023/01/09 09:12:05;;;;;;;5.97;0.97;;;9.70;96.70;;;;;;5134413;27;20487;-60
2023/01/09 09:17:18;;;;;;;2.40;1.03;;;9.70;96.80;;;;;;5134871;27;20401;-60
2023/01/09 09:19:44;;;;;;;6.53;1.57;;;9.60;96.60;;;;;;5134419;27;20425;-60
2023/01/09 09:22:11;;;;;;;4.47;1.30;;;9.70;96.80;;;;;;5134047;28;20477;-60
2023/01/09 09:24:38;;;;;;;4.83;1.43;;;9.60;96.70;;;;;;5134234;28;20486;-60
2023/01/09 09:27:04;;;;;;;5.27;2.60;;;9.60;96.90;;;;;;5134015;28;20976;-60
2023/01/09 09:29:31;;;;;;;5.73;1.30;;;9.70;97.10;;;;;;5134285;28;20461;-60
2023/01/09 09:31:58;;;;;;;4.50;1.00;;;9.80;97.10;;;;;;5134507;28;20464;-60
2023/01/09 09:34:26;;;;;;;4.23;1.00;;;9.70;96.80;;;;;;5134343;28;20427;-60
2023/01/09 09:36:53;;;;;;;2.40;1.07;;;9.80;96.80;;;;;;5134272;28;20452;-60
2023/01/09 09:39:19;;;;;;;4.13;1.70;;;9.80;96.60;;;;;;5134157;28;20429;-60
2023/01/09 09:45:17;;;;;;;2.33;1.00;;;9.90;96.50;;;;;;5133928;28;20944;-60
2023/01/09 09:47:53;;;;;;;3.27;0.97;;;9.80;96.20;;;;;;5134708;28;20453;-60
2023/01/09 09:50:32;;;;;;;3.97;1.47;;;9.80;96.60;;;;;;5134158;28;20434;-60
2023/01/09 09:53:06;;;;;;;1.43;0.90;;;9.70;96.60;;;;;;5134178;28;20476;-60
2023/01/09 09:55:35;;;;;;;3.03;1.20;;;9.70;96.50;;;;;;5135204;27;20437;-60
2023/01/09 09:58:05;;;;;;;2.07;0.93;;;9.70;96.70;;;;;;5137813;27;20928;-59
2023/01/09 10:00:32;;;;;;;6.00;1.00;;;9.70;97.00;;;;;;5138319;27;20445;-59
2023/01/09 10:03:03;;;;;;;5.70;1.10;;;9.70;97.00;;;;;;5137666;27;20555;-61
2023/01/09 10:05:35;;;;;;;8.00;1.40;;;9.70;97.20;;;;;;5137630;27;20460;-60
2023/01/09 10:08:06;;;;;;;2.90;1.67;;;9.70;97.30;;;;;;5138156;27;20430;-60
2023/01/09 10:10:37;;;;;;;8.03;1.47;;;9.70;97.10;;;;;;5137929;27;20448;-59
2023/01/09 10:14:03;;;;;;;2.23;1.40;;;9.60;97.20;;;;;;5137792;27;20483;-59
2023/01/09 10:16:02;;;;;;;9.30;1.13;;;9.60;97.20;;;;;;5137243;27;21016;-59
2023/01/09 10:18:41;;;;;;;4.43;1.00;;;9.70;97.40;;;;;;5138297;27;20427;-59
2023/01/09 10:21:16;;;;;;;2.93;1.13;;;9.60;97.30;;;;;;5137379;27;20429;-59
2023/01/09 10:24:08;;;;;;;2.03;0.90;;;9.50;96.90;;;;;;5137419;27;20461;-60
2023/01/09 10:26:42;;;;;;;3.80;1.30;;;9.50;97.00;;;;;;5137581;27;20476;-60
2023/01/09 10:29:40;;;;;;;2.20;1.27;;;9.50;97.30;;;;;;5137640;27;20476;-59
2023/01/09 10:32:33;;;;;;;5.53;1.50;;;9.50;97.40;;;;;;5137274;27;20473;-60
2023/01/09 10:35:23;;;;;;;5.93;1.10;;;9.40;97.50;;;;;;5137436;27;20425;-60
2023/01/09 10:37:54;;;;;;;1.50;0.80;;;9.40;97.60;;;;;;5137560;27;20436;-59
2023/01/09 10:40:24;;;;;;;3.30;0.97;;;9.40;97.50;;;;;;5136894;27;20548;-59
2023/01/09 10:42:55;;;;;;;3.73;1.03;;;9.40;97.40;;;;;;5137277;27;20476;-59
2023/01/09 10:45:25;;;;;;;2.60;1.10;;;9.50;97.70;;;;;;5136830;27;21060;-60
2023/01/09 10:47:56;;;;;;;2.43;1.13;;;9.60;97.40;;;;;;5137203;27;20434;-59
2023/01/09 10:50:26;;;;;;;6.57;1.70;;;9.60;97.40;;;;;;5137147;27;20425;-59
2023/01/09 10:52:55;;;;;;;3.80;1.47;;;9.60;96.90;;;;;;5137081;27;20484;-60
2023/01/09 10:55:32;;;;;;;8.83;1.87;;;9.70;96.80;;;;;;5136854;27;20426;-60
2023/01/09 10:58:02;;;;;;;3.90;1.20;;;9.60;96.70;;;;;;5137159;27;20447;-60
2023/01/09 11:00:29;;;;;;;2.03;1.07;;;9.60;96.70;;;;;;5136926;27;20437;-59
2023/01/09 11:02:56;;;;;;;3.00;1.17;;;9.60;96.90;;;;;;5136435;27;20472;-59
2023/01/09 11:05:25;;;;;;;3.97;0.73;;;9.60;96.80;;;;;;5136670;27;20983;-60
2023/01/09 11:07:56;;;;;;;2.27;1.23;;;9.50;96.70;;;;;;5135557;27;20460;-59
2023/01/09 11:10:23;;;;;;;1.40;0.80;;;9.50;96.50;;;;;;5136856;27;20435;-59
2023/01/09 11:12:50;;;;;;;2.90;1.30;;;9.50;96.70;;;;;;5136663;27;20980;-59
2023/01/09 11:15:29;;;;;;;5.40;1.37;;;9.50;96.40;;;;;;5136666;27;20449;-60
2023/01/09 11:18:18;;;;;;;1.80;0.90;;;9.60;96.20;;;;;;5136849;27;20441;-60
2023/01/09 11:20:45;;;;;;;4.97;1.00;;;9.60;96.00;;;;;;5136768;27;20457;-59
2023/01/09 11:23:29;;;;;;;4.27;1.13;;;9.70;96.10;;;;;;5136172;27;20476;-59
2023/01/09 11:25:59;;;;;;;2.00;0.87;;;9.70;96.20;;;;;;5136137;27;20508;-59
2023/01/09 11:28:26;;;;;;;2.37;0.93;;;9.80;96.20;;;;;;5136522;27;20433;-60
2023/01/09 11:30:55;;;;;;;4.53;0.80;;;10.00;94.90;;;;;;5136104;27;20952;-60
2023/01/09 11:33:25;;;;;;;2.90;0.90;;;10.10;95.30;;;;;;5136564;27;20429;-60
2023/01/09 11:35:57;;;;;;;2.93;1.47;;;10.20;94.70;;;;;;5135972;27;20437;-60
2023/01/09 11:38:25;;;;;;;1.70;0.57;;;10.20;93.80;;;;;;5136642;27;20437;-60
2023/01/09 11:40:55;;;;;;;1.63;0.80;;;10.10;93.10;;;;;;5136032;27;20951;-60
2023/01/09 11:43:31;;;;;;;2.83;0.70;;;10.00;93.60;;;;;;5135828;27;20914;-60
2023/01/09 11:46:00;;;;;;;2.13;0.90;;;9.90;94.40;;;;;;5136384;27;20469;-60
2023/01/09 11:48:41;;;;;;;0.80;0.50;;;9.80;94.60;;;;;;5135978;27;20450;-59
2023/01/09 11:51:25;;;;;;;2.13;0.70;;;9.80;94.70;;;;;;5135794;27;20455;-60
2023/01/09 11:54:21;;;;;;;0.60;0.50;;;9.70;94.90;;;;;;5135900;27;20433;-59
2023/01/09 11:56:48;;;;;;;1.50;0.87;;;9.70;95.30;;;;;;5135530;27;20808;-59
2023/01/09 11:59:18;;;;;;;0.90;0.67;;;9.50;95.10;;;;;;5135802;27;20514;-59
2023/01/09 12:02:06;;;;;;;1.53;0.80;;;9.50;95.80;;;;;;5135713;27;20472;-59
2023/01/09 12:04:36;;;;;;;1.57;0.77;;;9.50;95.40;;;;;;5135440;27;20439;-59
2023/01/09 12:07:25;;;;;;;2.23;0.70;;;9.40;95.50;;;;;;5135769;27;20468;-59
2023/01/09 12:10:02;;;;;;;1.63;1.00;;;9.40;95.50;;;;;;5130347;27;20452;-60
2023/01/09 12:12:40;;;;;;;2.67;1.03;;;9.30;95.50;;;;;;5134216;27;20481;-60
2023/01/09 12:15:23;;;;;;;1.30;0.70;;;9.20;95.60;;;;;;5135300;27;20428;-59
2023/01/09 12:18:22;;;;;;;2.57;1.00;;;9.20;96.40;;;;;;5135147;27;20429;-59
2023/01/09 12:21:13;;;;;;;2.60;1.20;;;9.30;96.70;;;;;;5134918;27;20444;-60
2023/01/09 12:23:55;;;;;;;1.10;1.03;;;9.30;96.00;;;;;;5135342;27;20429;-60
2023/01/09 12:26:25;;;;;;;1.40;1.10;;;9.20;96.40;;;;;;5135069;27;20478;-59
2023/01/09 12:29:29;;;;;;;3.43;1.23;;;9.20;96.70;;;;;;5135303;27;20441;-60
2023/01/09 12:32:13;;;;;;;1.83;1.00;;;9.30;96.80;;;;;;5075110;27;20473;-59
2023/01/09 12:34:56;;;;;;;2.87;0.87;;;9.30;96.70;;;;;;5135070;27;20840;-60
2023/01/09 12:37:43;;;;;;;6.30;1.30;;;9.30;96.30;;;;;;5134794;27;20938;-60
2023/01/09 12:40:28;;;;;;;3.23;1.70;;;9.40;96.50;;;;;;5134911;27;20456;-60
2023/01/09 12:43:05;;;;;;;1.60;0.87;;;9.30;96.70;;;;;;5134905;27;20469;-60
2023/01/09 12:45:40;;;;;;;3.80;1.30;;;9.30;96.80;;;;;;5134759;27;20479;-59
2023/01/09 12:48:20;;;;;;;3.47;0.90;;;9.40;97.00;;;;;;5135042;27;20440;-60
2023/01/09 12:51:22;;;;;;;3.23;1.07;;;9.40;97.30;;;;;;5135041;27;20437;-59
2023/01/09 12:53:55;;;;;;;2.30;1.00;;;9.40;97.00;;;;;;5126642;27;20468;-59
2023/01/09 12:56:29;;;;;;;1.40;0.90;;;9.30;97.30;;;;;;5134781;27;20433;-60
2023/01/09 12:59:00;;;;;;;1.40;1.03;;;9.40;97.60;;;;;;5134834;27;20452;-59
2023/01/09 13:01:32;;;;;;;9.00;1.40;;;9.30;96.90;;;;;;5134531;27;20480;-59
2023/01/09 13:04:11;;;;;;;2.47;1.03;;;9.30;97.20;;;;;;5134660;27;20896;-60
2023/01/09 13:06:44;;;;;;;5.07;1.77;;;9.10;97.30;;;;;;5134803;27;20487;-60
2023/01/09 13:09:20;;;;;;;4.33;1.27;;;9.10;97.30;;;;;;5134666;27;20447;-60
2023/01/09 13:11:54;;;;;;;3.10;0.90;;;9.10;97.60;;;;;;5134631;27;20464;-60
2023/01/09 13:14:27;;;;;;;2.80;1.30;;;9.20;98.10;;;;;;5134565;27;20430;-59
2023/01/09 13:16:56;;;;;;;1.43;1.00;;;9.20;97.30;;;;;;5135172;27;20432;-60
2023/01/09 13:19:26;;;;;;;1.70;1.60;;;9.30;97.40;;;;;;5134951;27;20433;-59
2023/01/09 13:21:56;;;;;;;2.30;1.30;;;9.40;97.60;;;;;;5135058;27;20471;-59
2023/01/09 13:24:27;;;;;;;4.47;1.40;;;9.50;97.40;;;;;;5135500;28;20434;-60
2023/01/09 13:26:57;;;;;;;3.13;1.43;;;9.60;96.80;;;;;;5134717;28;20468;-59
2023/01/09 13:29:30;;;;;;;1.20;1.10;;;9.60;96.60;;;;;;5135243;27;20442;-60